1956 Tropical Low NOT_NAMED (1956047S15124)


IBTrACS version v04r00. Visit IBTrACS website for data access.
Please direct all questions to the IBTrACS Q and A forum

Storm track - Intensity - Wind Radii - Intensity Data - Source Data - All data

Summary Information

Storm ID 1956047S15124
Start Feb 15 23Z
Landfall Feb 17 06Z
Max Intensity 960 mb (Feb 29 01Z)
End Mar 1 23Z
ATCF IDs ,SH221956
Track status Best track data.

Storm track plot

Map of storm track

Intensity plots

Map of storm track

Radial wind information

No radial wind information for this storm


Position and Intensity Table

BASIN ISO_TIME_________ NATURE LAT LON WMO PRES BOM PRES
degrees north degrees east mb mb
SI 1956-02-15 23:00:00 NR -14.90 123.90
SI 1956-02-16 00:00:00 TS -14.99 123.79
SI 01:00:00 TS -15.07 123.64 996 996
SI 03:00:00 TS -15.21 123.43
SI 06:00:00 TS -15.42 123.13
SI 09:00:00 TS -15.66 122.88
SI 11:00:00 TS -15.83 122.72
SI 12:00:00 TS -15.92 122.64
SI 15:00:00 TS -16.17 122.43
SI 18:00:00 TS -16.44 122.27
SI 21:00:00 TS -16.74 122.14
SI 23:00:00 TS -16.94 122.10
SI 1956-02-17 00:00:00 TS -17.00 122.12
SI 01:00:00 TS -17.06 122.13 990 990
SI 03:00:00 TS -17.21 122.15
SI 06:00:00 TS -17.46 122.21
SI 09:00:00 TS -17.74 122.33
SI 11:00:00 TS -17.92 122.45
SI 12:00:00 TS -18.00 122.51
SI 15:00:00 TS -18.23 122.73
SI 18:00:00 TS -18.43 122.99
SI 21:00:00 TS -18.58 123.29
SI 23:00:00 TS -18.66 123.50
SI 1956-02-18 00:00:00 TS -18.70 123.61
SI 01:00:00 TS -18.74 123.72 975 975
SI 03:00:00 TS -18.82 123.93 975
SI 06:00:00 TS -18.93 124.26 975
SI 09:00:00 TS -19.02 124.62 975
SI 11:00:00 TS -19.07 124.88 975 975
SI 12:00:00 TS -19.10 125.02
SI 15:00:00 TS -19.20 125.46
SI 18:00:00 TS -19.30 125.92
SI 21:00:00 TS -19.38 126.36
SI 23:00:00 TS -19.44 126.64
SI 1956-02-19 00:00:00 TS -19.48 126.78
SI 01:00:00 TS -19.54 126.92 985 985
SI 03:00:00 TS -19.68 127.17
SI 06:00:00 TS -19.90 127.53
SI 09:00:00 TS -20.12 127.89
SI 11:00:00 TS -20.26 128.13
SI 12:00:00 TS -20.33 128.25
SI 15:00:00 TS -20.53 128.63
SI 18:00:00 TS -20.69 129.02
SI 21:00:00 TS -20.76 129.40
SI 23:00:00 TS -20.77 129.64
SI 1956-02-20 00:00:00 TS -20.77 129.75
SI 01:00:00 TS -20.76 129.86 990 990
SI 03:00:00 TS -20.73 130.07 990
SI 06:00:00 TS -20.66 130.38 991
SI 08:00:00 TS -20.59 130.59 992 992
SI 09:00:00 TS -20.54 130.70
SI 11:00:00 TS -20.45 130.92
SI 12:00:00 TS -20.40 131.03
SI 15:00:00 TS -20.24 131.35
SI 18:00:00 TS -20.09 131.66
SI 21:00:00 TS -19.95 131.96
SI 23:00:00 TS -19.89 132.14
SI 23:30:00 TS -19.88 132.18 996 996
SI 1956-02-21 00:00:00 TS -19.88 132.22
SI 03:00:00 TS -19.88 132.41
SI 06:00:00 TS -19.93 132.54
SI 09:00:00 TS -19.97 132.63
SI 11:00:00 TS -20.00 132.68
SI 12:00:00 TS -20.01 132.71
SI 15:00:00 TS -20.06 132.77
SI 18:00:00 TS -20.10 132.83
SI 21:00:00 TS -20.16 132.87
SI 23:00:00 TS -20.24 132.88
SI 23:30:00 TS -20.30 132.87 992 992
SI 1956-02-22 00:00:00 TS -20.36 132.85
SI 03:00:00 TS -20.48 132.83
SI 06:00:00 TS -20.52 132.83
SI 09:00:00 TS -20.54 132.83
SI 11:00:00 TS -20.55 132.82
SI 12:00:00 TS -20.56 132.82
SI 15:00:00 TS -20.60 132.80
SI 18:00:00 TS -20.64 132.78
SI 21:00:00 TS -20.68 132.76
SI 23:00:00 TS -20.70 132.72
SI 23:30:00 TS -20.70 132.70 992 992
SI 1956-02-23 00:00:00 TS -20.71 132.69
SI 03:00:00 TS -20.70 132.51
SI 06:00:00 TS -20.64 132.30
SI 09:00:00 TS -20.56 132.08
SI 11:00:00 TS -20.48 131.95
SI 12:00:00 TS -20.44 131.90
SI 13:00:00 TS -20.39 131.86
SI 15:00:00 TS -20.28 131.80
SI 18:00:00 TS -20.05 131.69
SI 21:00:00 TS -19.74 131.45
SI 23:00:00 TS -19.46 131.12
SI 23:30:00 TS -19.32 130.87 995 995
SI 1956-02-24 00:00:00 TS -19.17 130.57
SI 03:00:00 TS -18.42 129.80
SI 06:00:00 TS -17.61 128.79
SI 09:00:00 TS -16.94 127.70
SI 11:00:00 TS -16.61 126.91
SI 12:00:00 TS -16.50 126.50
SI 15:00:00 TS -16.30 125.19
SI 18:00:00 TS -16.31 123.91
SI 21:00:00 TS -16.45 122.77
SI 23:00:00 TS -16.60 122.14
SI 23:30:00 TS -16.64 122.01 998
SI 1956-02-25 00:00:00 TS -16.69 121.88
SI 03:00:00 TS -16.96 121.28
SI 06:00:00 TS -17.26 120.87
SI 09:00:00 TS -17.54 120.52
SI 11:00:00 TS -17.71 120.31
SI 12:00:00 TS -17.80 120.19
SI 15:00:00 TS -18.05 119.83
SI 18:00:00 TS -18.29 119.49
SI 21:00:00 TS -18.50 119.19
SI 23:00:00 TS -18.63 118.99
SI 1956-02-26 00:00:00 TS -18.69 118.90
SI 01:00:00 TS -18.75 118.81 994
SI 03:00:00 TS -18.85 118.64
SI 06:00:00 TS -18.99 118.40
SI 09:00:00 TS -19.10 118.15
SI 11:00:00 TS -19.18 117.99
SI 12:00:00 TS -19.22 117.91
SI 15:00:00 TS -19.36 117.65
SI 18:00:00 TS -19.50 117.41
SI 21:00:00 TS -19.62 117.19
SI 23:00:00 TS -19.68 117.07
SI 1956-02-27 00:00:00 TS -19.71 117.02
SI 01:00:00 TS -19.75 116.97 980
SI 03:00:00 TS -19.81 116.89
SI 06:00:00 TS -19.90 116.80
SI 09:00:00 TS -19.96 116.70
SI 11:00:00 TS -19.99 116.63
SI 12:00:00 TS -20.01 116.58
SI 15:00:00 TS -20.06 116.45
SI 18:00:00 TS -20.11 116.29
SI 21:00:00 TS -20.01 116.33
SI 23:00:00 TS -19.85 116.57
SI 1956-02-28 00:00:00 TS -19.74 116.79
SI 01:00:00 TS -19.66 116.94 970 970
SI 03:00:00 TS -19.69 116.89
SI 06:00:00 TS -19.80 116.68
SI 09:00:00 TS -19.88 116.46
SI 11:00:00 TS -19.94 116.32
SI 12:00:00 TS -19.97 116.25
SI 15:00:00 TS -20.08 116.08
SI 18:00:00 TS -20.21 115.91
SI 21:00:00 TS -20.40 115.65
SI 23:00:00 TS -20.56 115.43
SI 1956-02-29 00:00:00 TS -20.69 115.26
SI 01:00:00 TS -20.91 114.93 960 960
SI 03:00:00 TS -21.15 114.60
SI 06:00:00 TS -21.53 114.13
SI 09:00:00 TS -21.97 113.60
SI 11:00:00 TS -22.19 113.40
SI 12:00:00 TS -22.30 113.30
SI 15:00:00 TS -22.67 113.03
SI 18:00:00 TS -23.10 112.78
SI 21:00:00 TS -23.60 112.52
SI 23:00:00 TS -23.99 112.37
SI 1956-03-01 00:00:00 TS -24.21 112.31
SI 01:00:00 TS -24.44 112.27 960
SI 03:00:00 TS -24.96 112.21
SI 06:00:00 TS -25.77 112.19
SI 09:00:00 TS -26.52 112.20
SI 11:00:00 TS -26.99 112.27
SI 12:00:00 TS -27.21 112.33
SI 15:00:00 TS -27.87 112.60
SI 18:00:00 TS -28.49 112.96
SI 21:00:00 NR -29.04 113.41
SI 23:00:00 NR -29.40 113.70

Source Information

Agency Information
USA bsh221956.txt
TOKYO
CMA
HKO
NEWDELHI
REUNION
BOM IDCKMSTM0S.csv:Line=2099:unnamed
NADI
WELLINGTON
DS824 s_hem.dat:673:22S
TD9636 cons_worldwide_trop_cyclone_18710101-19891231-006:Line=4549
TD9635
NEUMANN
MLC

All available IBTrACS Data

SEASON BASIN SUBBASIN ISO_TIME_________ NATURE LAT LON WMO PRES WMO AGENCY DIST2LAND LANDFALL IFLAG USA AGENCY USA ATCF_ID USA LAT USA LON USA SSHS BOM LAT BOM LON BOM PRES BOM PRES_METHOD DS824 LAT DS824 LON DS824 STAGE TD9636 LAT TD9636 LON TD9636 STAGE STORM SPEED STORM DIR
Year degrees north degrees east mb km km degrees north degrees east 1 degrees north degrees east mb degrees north degrees east degrees north degrees east kts degrees
1956 SI WA 1956-02-15 23:00:00 NR -14.90 123.90 94 93 __________O___ -1 -14.90 123.90 7 8 230
1956 SI WA 1956-02-16 00:00:00 TS -14.99 123.79 93 93 O________OP___ jtwc_sh SH221956 -15.00 123.80 -1 -15.00 123.80 TC -14.98 123.79 7 9 235
1956 SI WA 01:00:00 TS -15.07 123.64 996 bom 102 102 P_____O__PP___ SH221956 -15.06 123.68 -1 -15.20 123.40 996 -15.06 123.68 TC -15.06 123.67 7 8 238
1956 SI WA 03:00:00 TS -15.21 123.43 116 104 P_____P__PP___ SH221956 -15.18 123.45 -1 -15.28 123.34 -15.18 123.45 TC -15.21 123.45 7 7 235
1956 SI WA 06:00:00 TS -15.42 123.13 110 100 O_____P__OP___ jtwc_sh SH221956 -15.40 123.10 -1 -15.41 123.25 -15.40 123.10 TC -15.46 123.12 7 7 230
1956 SI WA 09:00:00 TS -15.66 122.88 89 79 P_____P__PP___ SH221956 -15.68 122.78 -1 -15.54 123.15 -15.68 122.78 TC -15.71 122.80 7 7 224
1956 SI WA 11:00:00 TS -15.83 122.72 81 70 P_____P__PO___ SH221956 -15.89 122.59 -1 -15.62 123.09 -15.89 122.59 TC -15.90 122.60 7 7 221
1956 SI WA 12:00:00 TS -15.92 122.64 74 61 O_____P__OP___ jtwc_sh SH221956 -16.00 122.50 -1 -15.67 123.06 -16.00 122.50 TC -16.00 122.50 7 7 218
1956 SI WA 15:00:00 TS -16.17 122.43 61 54 P_____P__PP___ SH221956 -16.29 122.27 -1 -15.80 122.96 -16.29 122.27 TC -16.30 122.24 7 6 214
1956 SI WA 18:00:00 TS -16.44 122.27 54 39 O_____P__OP___ jtwc_sh SH221956 -16.60 122.10 -1 -15.94 122.86 -16.60 122.10 TC -16.63 122.03 7 6 206
1956 SI WA 21:00:00 TS -16.74 122.14 48 30 P_____P__PP___ SH221956 -16.94 121.96 -1 -16.09 122.75 -16.94 121.96 TC -16.97 121.92 7 6 199
1956 SI WA 23:00:00 TS -16.94 122.10 30 24 P_____P__PO___ SH221956 -17.18 121.91 -1 -16.19 122.68 -17.18 121.91 TC -17.20 121.90 7 5 184
1956 SI WA 1956-02-17 00:00:00 TS -17.00 122.12 24 24 O_____P__OP___ jtwc_sh SH221956 -17.30 121.90 -1 -16.25 122.64 -17.30 121.90 TC -17.32 121.90 7 4 160
1956 SI WA 01:00:00 TS -17.06 122.13 990 bom 21 15 P_____O__PP___ SH221956 -17.42 121.90 -1 -16.30 122.60 990 -17.42 121.90 TC -17.44 121.92 7 4 170
1956 SI WA 03:00:00 TS -17.21 122.15 15 0 P_____P__PP___ SH221956 -17.65 121.93 -1 -16.41 122.52 -17.65 121.93 TC -17.69 121.99 7 5 170
1956 SI WA 06:00:00 TS -17.46 122.21 0 0 O_____P__OP___ jtwc_sh SH221956 -18.00 122.10 -1 -16.58 122.40 -18.00 122.10 TC -18.06 122.19 7 6 162
1956 SI WA 09:00:00 TS -17.74 122.33 0 0 P_____P__PP___ SH221956 -18.36 122.40 -1 -16.76 122.28 -18.36 122.40 TC -18.40 122.47 7 6 154
1956 SI WA 11:00:00 TS -17.92 122.45 0 0 P_____P__PO___ SH221956 -18.59 122.66 -1 -16.88 122.21 -18.59 122.66 TC -18.60 122.70 7 6 146
1956 SI WA 12:00:00 TS -18.00 122.51 0 0 O_____P__OP___ jtwc_sh SH221956 -18.70 122.80 -1 -16.94 122.18 -18.70 122.80 TC -18.69 122.82 7 6 140
1956 SI WA 15:00:00 TS -18.23 122.73 0 0 P_____P__PP___ SH221956 -18.99 123.23 -1 -17.12 122.09 -18.99 123.23 TC -18.94 123.22 7 6 133
1956 SI WA 18:00:00 TS -18.43 122.99 0 0 O_____P__OP___ jtwc_sh SH221956 -19.20 123.70 -1 -17.30 122.02 -19.20 123.70 TC -19.15 123.68 7 6 123
1956 SI WA 21:00:00 TS -18.58 123.29 0 0 P_____P__PP___ SH221956 -19.32 124.20 -1 -17.48 121.99 -19.32 124.20 TC -19.31 124.17 7 6 115
1956 SI WA 23:00:00 TS -18.66 123.50 0 0 P_____P__PO___ SH221956 -19.37 124.54 -1 -17.59 121.98 -19.37 124.54 TC -19.40 124.50 7 7 112
1956 SI WA 1956-02-18 00:00:00 TS -18.70 123.61 0 0 O_____P__OP___ jtwc_sh SH221956 -19.40 124.70 -1 -17.65 121.99 -19.40 124.70 TC -19.44 124.66 7 7 112
1956 SI WA 01:00:00 TS -18.74 123.72 975 bom 0 0 P_____O__PP___ SH221956 -19.44 124.86 -1 -17.70 122.00 975 -19.44 124.86 TC -19.48 124.82 7 6 112
1956 SI WA 03:00:00 TS -18.82 123.93 0 0 P_____P__PP___ SH221956 -19.51 125.16 -1 -17.81 121.99 975 -19.51 125.16 TC -19.54 125.14 7 7 111
1956 SI WA 06:00:00 TS -18.93 124.26 0 0 O_____P__OP___ jtwc_sh SH221956 -19.60 125.60 -1 -17.96 122.01 975 -19.60 125.60 TC -19.61 125.63 7 7 107
1956 SI WA 09:00:00 TS -19.02 124.62 0 0 P_____P__PP___ SH221956 -19.65 126.05 -1 -18.11 122.14 975 -19.65 126.05 TC -19.66 126.10 7 7 104
1956 SI WA 11:00:00 TS -19.07 124.88 975 bom 0 0 P_____O__PO___ SH221956 -19.68 126.35 -1 -18.20 122.30 975 -19.68 126.35 TC -19.70 126.40 7 8 103
1956 SI WA 12:00:00 TS -19.10 125.02 0 0 O_____P__OP___ jtwc_sh SH221956 -19.70 126.50 -1 -18.24 122.42 -19.70 126.50 TC -19.72 126.55 7 8 103
1956 SI WA 15:00:00 TS -19.20 125.46 0 0 P_____P__PP___ SH221956 -19.80 126.96 -1 -18.36 122.89 -19.80 126.96 TC -19.77 126.97 7 9 103
1956 SI WA 18:00:00 TS -19.30 125.92 0 0 O_____P__OP___ jtwc_sh SH221956 -19.90 127.40 -1 -18.46 123.48 -19.90 127.40 TC -19.83 127.37 7 9 102
1956 SI WA 21:00:00 TS -19.38 126.36 0 0 P_____P__PP___ SH221956 -19.93 127.77 -1 -18.56 124.14 -19.93 127.77 TC -19.92 127.75 7 8 101
1956 SI WA 23:00:00 TS -19.44 126.64 0 0 P_____P__PO___ SH221956 -19.96 127.99 -1 -18.63 124.58 -19.96 127.99 TC -20.00 128.00 7 8 105
1956 SI WA 1956-02-19 00:00:00 TS -19.48 126.78 0 0 O_____P__OP___ jtwc_sh SH221956 -20.00 128.10 -1 -18.66 124.79 -20.00 128.10 TC -20.06 128.12 7 8 111
1956 SI WA 01:00:00 TS -19.54 126.92 985 bom 0 0 P_____O__PP___ SH221956 -20.06 128.22 -1 -18.70 125.00 985 -20.06 128.22 TC -20.13 128.24 7 8 118
1956 SI WA 03:00:00 TS -19.68 127.17 0 0 P_____P__PP___ SH221956 -20.22 128.45 -1 -18.79 125.30 -20.22 128.45 TC -20.27 128.48 7 8 122
1956 SI WA 06:00:00 TS -19.90 127.53 0 0 O_____P__OP___ jtwc_sh SH221956 -20.50 128.80 -1 -18.95 125.70 -20.50 128.80 TC -20.52 128.82 7 8 123
1956 SI WA 09:00:00 TS -20.12 127.89 0 0 P_____P__PP___ SH221956 -20.76 129.14 -1 -19.11 126.06 -20.76 129.14 TC -20.76 129.17 7 8 123
1956 SI WA 11:00:00 TS -20.26 128.13 0 0 P_____P__PO___ SH221956 -20.92 129.38 -1 -19.22 126.29 -20.92 129.38 TC -20.90 129.40 7 8 122
1956 SI WA 12:00:00 TS -20.33 128.25 0 0 O_____P__OP___ jtwc_sh SH221956 -21.00 129.50 -1 -19.28 126.40 -21.00 129.50 TC -20.97 129.53 7 8 120
1956 SI WA 15:00:00 TS -20.53 128.63 0 0 P_____P__PP___ SH221956 -21.25 129.90 -1 -19.46 126.73 -21.25 129.90 TC -21.16 129.92 7 8 116
1956 SI WA 18:00:00 TS -20.69 129.02 0 0 O_____P__OP___ jtwc_sh SH221956 -21.40 130.30 -1 -19.63 127.07 -21.40 130.30 TC -21.31 130.32 7 8 108
1956 SI WA 21:00:00 TS -20.76 129.40 0 0 P_____P__PP___ SH221956 -21.40 130.68 -1 -19.80 127.44 -21.40 130.68 TC -21.40 130.68 7 7 98
1956 SI WA 23:00:00 TS -20.77 129.64 0 0 P_____P__PO___ SH221956 -21.34 130.90 -1 -19.90 127.71 -21.34 130.90 TC -21.40 130.90 7 7 91
1956 SI WA 1956-02-20 00:00:00 TS -20.77 129.75 0 0 O_____P__OP___ jtwc_sh SH221956 -21.30 131.00 -1 -19.95 127.85 -21.30 131.00 TC -21.38 130.99 7 6 87
1956 SI WA 01:00:00 TS -20.76 129.86 990 bom 0 0 P_____O__PP___ SH221956 -21.26 131.08 -1 -20.00 128.00 990 -21.26 131.08 TC -21.35 131.08 7 6 83
1956 SI WA 03:00:00 TS -20.73 130.07 0 0 P_____P__PP___ SH221956 -21.17 131.21 -1 -20.11 128.34 990 -21.17 131.21 TC -21.26 131.24 7 6 78
1956 SI WA 06:00:00 TS -20.66 130.38 0 0 O_____P__OP___ jtwc_sh SH221956 -21.00 131.40 -1 -20.25 128.86 991 -21.00 131.40 TC -21.07 131.46 7 6 73
1956 SI WA 08:00:00 TS -20.59 130.59 992 bom 0 0 P_____O__PP___ SH221956 -20.87 131.56 -1 -20.30 129.20 992 -20.87 131.56 TC -20.92 131.59 7 6 70
1956 SI WA 09:00:00 TS -20.54 130.70 0 0 P_____P__PP___ SH221956 -20.81 131.64 -1 -20.31 129.36 -20.81 131.64 TC -20.85 131.66 7 7 66
1956 SI WA 11:00:00 TS -20.45 130.92 0 0 P_____P__PO___ SH221956 -20.67 131.81 -1 -20.29 129.66 -20.67 131.81 TC -20.70 131.80 7 7 65
1956 SI WA 12:00:00 TS -20.40 131.03 0 0 O_____P__OP___ jtwc_sh SH221956 -20.60 131.90 -1 -20.27 129.81 -20.60 131.90 TC -20.63 131.89 7 7 63
1956 SI WA 15:00:00 TS -20.24 131.35 0 0 P_____P__PP___ SH221956 -20.38 132.15 -1 -20.16 130.22 -20.38 132.15 TC -20.41 132.17 7 7 62
1956 SI WA 18:00:00 TS -20.09 131.66 0 0 O_____P__OP___ jtwc_sh SH221956 -20.20 132.40 -1 -20.00 130.59 -20.20 132.40 TC -20.20 132.45 7 6 63
1956 SI WA 21:00:00 TS -19.95 131.96 0 0 P_____P__PP___ SH221956 -20.06 132.68 -1 -19.83 130.93 -20.06 132.68 TC -20.05 132.68 7 6 67
1956 SI WA 23:00:00 TS -19.89 132.14 0 0 P_____P__PO___ SH221956 -20.01 132.84 -1 -19.73 131.15 -20.01 132.84 TC -20.00 132.80 7 5 71
1956 SI WA 23:30:00 TS -19.88 132.18 996 bom 0 0 P_____O__PP___ SH221956 -20.00 132.87 -1 -19.70 131.20 996 -20.00 132.87 TC -20.00 132.82 7 4 77
1956 SI WA 1956-02-21 00:00:00 TS -19.88 132.22 0 0 O_____P__OP___ jtwc_sh SH221956 -20.00 132.90 -1 -19.68 131.26 -20.00 132.90 TC -20.00 132.84 7 4 91
1956 SI WA 03:00:00 TS -19.88 132.41 0 0 P_____P__PP___ SH221956 -20.07 132.99 -1 -19.58 131.59 -20.07 132.99 TC -20.05 132.92 7 3 100
1956 SI WA 06:00:00 TS -19.93 132.54 0 0 O_____P__OP___ jtwc_sh SH221956 -20.20 133.00 -1 -19.49 131.89 -20.20 133.00 TC -20.16 132.94 7 2 112
1956 SI WA 09:00:00 TS -19.97 132.63 0 0 P_____P__PP___ SH221956 -20.30 132.97 -1 -19.42 132.18 -20.30 132.97 TC -20.30 132.92 7 2 118
1956 SI WA 11:00:00 TS -20.00 132.68 0 0 P_____P__PO___ SH221956 -20.37 132.92 -1 -19.38 132.35 -20.37 132.92 TC -20.40 132.90 7 2 123
1956 SI WA 12:00:00 TS -20.01 132.71 0 0 O_____P__OP___ jtwc_sh SH221956 -20.40 132.90 -1 -19.36 132.43 -20.40 132.90 TC -20.44 132.89 7 2 122
1956 SI WA 15:00:00 TS -20.06 132.77 0 0 P_____P__PP___ SH221956 -20.50 132.85 -1 -19.31 132.67 -20.50 132.85 TC -20.55 132.86 7 1 129
1956 SI WA 18:00:00 TS -20.10 132.83 0 0 O_____P__OP___ jtwc_sh SH221956 -20.60 132.80 -1 -19.29 132.88 -20.60 132.80 TC -20.66 132.80 7 1 139
1956 SI WA 21:00:00 TS -20.16 132.87 0 0 P_____P__PP___ SH221956 -20.71 132.75 -1 -19.28 133.06 -20.71 132.75 TC -20.75 132.74 7 2 166
1956 SI WA 23:00:00 TS -20.24 132.88 0 0 P_____P__PO___ SH221956 -20.77 132.72 -1 -19.30 133.17 -20.77 132.72 TC -20.80 132.70 7 3 189
1956 SI WA 23:30:00 TS -20.30 132.87 992 bom 0 0 P_____O__PP___ SH221956 -20.79 132.71 -1 -19.30 133.20 992 -20.79 132.71 TC -20.81 132.69 7 8 0
1956 SI WA 1956-02-22 00:00:00 TS -20.36 132.85 0 0 O_____P__OP___ jtwc_sh SH221956 -20.80 132.70 -1 -19.30 133.23 -20.80 132.70 TC -20.82 132.68 7 3 189
1956 SI WA 03:00:00 TS -20.48 132.83 0 0 P_____P__PP___ SH221956 -20.86 132.65 -1 -19.33 133.40 -20.86 132.65 TC -20.86 132.63 7 2 189
1956 SI WA 06:00:00 TS -20.52 132.83 0 0 O_____P__OP___ jtwc_sh SH221956 -20.90 132.60 -1 -19.37 133.55 -20.90 132.60 TC -20.89 132.58 7 1 0
1956 SI WA 09:00:00 TS -20.54 132.83 0 0 P_____P__PP___ SH221956 -20.91 132.55 -1 -19.44 133.68 -20.91 132.55 TC -20.90 132.53 7 0 200
1956 SI WA 11:00:00 TS -20.55 132.82 0 0 P_____P__PO___ SH221956 -20.90 132.52 -1 -19.50 133.74 -20.90 132.52 TC -20.90 132.50 7 1 0
1956 SI WA 12:00:00 TS -20.56 132.82 0 0 O_____P__OP___ jtwc_sh SH221956 -20.90 132.50 -1 -19.54 133.77 -20.90 132.50 TC -20.91 132.49 7 1 0
1956 SI WA 15:00:00 TS -20.60 132.80 0 0 P_____P__PP___ SH221956 -20.90 132.45 -1 -19.65 133.85 -20.90 132.45 TC -20.94 132.47 7 1 213
1956 SI WA 18:00:00 TS -20.64 132.78 0 0 O_____P__OP___ jtwc_sh SH221956 -20.90 132.40 -1 -19.79 133.89 -20.90 132.40 TC -20.95 132.44 7 1 209
1956 SI WA 21:00:00 TS -20.68 132.76 0 0 P_____P__PP___ SH221956 -20.92 132.38 -1 -19.95 133.91 -20.92 132.38 TC -20.94 132.37 7 1 223
1956 SI WA 23:00:00 TS -20.70 132.72 0 0 P_____P__PO___ SH221956 -20.92 132.34 -1 -20.07 133.90 -20.92 132.34 TC -20.90 132.30 7 1 250
1956 SI WA 23:30:00 TS -20.70 132.70 992 bom 0 0 P_____O__PP___ SH221956 -20.91 132.32 -1 -20.10 133.90 992 -20.91 132.32 TC -20.89 132.27 7 2 263
1956 SI WA 1956-02-23 00:00:00 TS -20.71 132.69 0 0 O_____P__OP___ jtwc_sh SH221956 -20.90 132.30 -1 -20.15 133.90 -20.90 132.30 TC -20.88 132.25 7 3 272
1956 SI WA 03:00:00 TS -20.70 132.51 0 0 P_____P__PP___ SH221956 -20.78 132.08 -1 -20.45 133.86 -20.78 132.08 TC -20.77 132.04 7 4 280
1956 SI WA 06:00:00 TS -20.64 132.30 0 0 O_____P__OP___ jtwc_sh SH221956 -20.60 131.80 -1 -20.76 133.79 -20.60 131.80 TC -20.62 131.81 7 4 288
1956 SI WA 09:00:00 TS -20.56 132.08 0 0 P_____P__PP___ SH221956 -20.41 131.53 -1 -20.99 133.71 -20.41 131.53 TC -20.44 131.56 7 4 297
1956 SI WA 11:00:00 TS -20.48 131.95 0 0 P_____P__PO___ SH221956 -20.27 131.37 -1 -21.08 133.65 -20.27 131.37 TC -20.30 131.40 7 4 305
1956 SI WA 12:00:00 TS -20.44 131.90 0 0 O_____P__OP___ jtwc_sh SH221956 -20.20 131.30 -1 -21.10 133.63 -20.20 131.30 TC -20.25 131.37 7 4 314
1956 SI WA 13:00:00 TS -20.39 131.86 bom 0 0 P_____O__PP___ SH221956 -20.14 131.24 -1 -21.10 133.60 -20.14 131.24 TC -20.20 131.36 7 4 329
1956 SI WA 15:00:00 TS -20.28 131.80 0 0 P_____P__PP___ SH221956 -20.01 131.14 -1 -21.01 133.57 -20.01 131.14 TC -20.09 131.32 7 5 335
1956 SI WA 18:00:00 TS -20.05 131.69 0 0 O_____P__OP___ jtwc_sh SH221956 -19.80 131.00 -1 -20.75 133.52 -19.80 131.00 TC -19.87 131.23 7 6 329
1956 SI WA 21:00:00 TS -19.74 131.45 0 0 P_____P__PP___ SH221956 -19.59 130.91 -1 -20.41 133.46 -19.59 130.91 TC -19.57 130.99 7 10 318
1956 SI WA 23:00:00 TS -19.46 131.12 0 0 P_____P__PO___ SH221956 -19.36 130.75 -1 -20.16 133.41 -19.36 130.75 TC -19.30 130.70 7 17 308
1956 SI WA 23:30:00 TS -19.32 130.87 995 bom 0 0 P_____O__PP___ SH221956 -19.29 130.68 -1 -20.10 133.40 995 -19.29 130.68 TC -19.20 130.60 7 36 299
1956 SI WA 1956-02-24 00:00:00 TS -19.17 130.57 0 0 O________OP___ jtwc_sh SH221956 -19.20 130.60 -1 -19.20 130.60 TC -19.10 130.50 7 23 312
1956 SI WA 03:00:00 TS -18.42 129.80 0 0 P________PP___ SH221956 -18.44 129.84 -1 -18.44 129.84 TC -18.39 129.72 7 23 313
1956 SI WA 06:00:00 TS -17.61 128.79 0 0 O________OP___ jtwc_sh SH221956 -17.60 128.80 -1 -17.60 128.80 TC -17.62 128.76 7 25 306
1956 SI WA 09:00:00 TS -16.94 127.70 0 0 P________PP___ SH221956 -16.94 127.71 -1 -16.94 127.71 TC -16.94 127.67 7 25 299
1956 SI WA 11:00:00 TS -16.61 126.91 0 0 P________PO___ SH221956 -16.62 126.91 -1 -16.62 126.91 TC -16.60 126.90 7 25 291
1956 SI WA 12:00:00 TS -16.50 126.50 0 0 O________OP___ jtwc_sh SH221956 -16.50 126.50 -1 -16.50 126.50 TC -16.50 126.50 7 25 281
1956 SI WA 15:00:00 TS -16.30 125.19 0 0 P________PP___ SH221956 -16.29 125.18 -1 -16.29 125.18 TC -16.33 125.22 7 25 274
1956 SI WA 18:00:00 TS -16.31 123.91 10 0 O________OP___ jtwc_sh SH221956 -16.30 123.90 -1 -16.30 123.90 TC -16.34 123.93 7 23 266
1956 SI WA 21:00:00 TS -16.45 122.77 15 15 P________PP___ SH221956 -16.44 122.78 -1 -16.44 122.78 TC -16.47 122.76 7 21 260
1956 SI WA 23:00:00 TS -16.60 122.14 54 54 P________PO___ SH221956 -16.61 122.16 -1 -16.61 122.16 TC -16.60 122.10 7 18 255
1956 SI WA 23:30:00 TS -16.64 122.01 998 bom 62 54 P________PP___ SH221956 -16.65 122.03 -1 -16.65 122.03 TC -16.63 121.97 7 16 252
1956 SI WA 1956-02-25 00:00:00 TS -16.69 121.88 61 61 O________OP___ jtwc_sh SH221956 -16.70 121.90 -1 -16.70 121.90 TC -16.66 121.84 7 13 246
1956 SI WA 03:00:00 TS -16.96 121.28 101 101 P________PP___ SH221956 -16.99 121.30 -1 -16.99 121.30 TC -16.89 121.24 7 11 239
1956 SI WA 06:00:00 TS -17.26 120.87 131 131 O________OP___ jtwc_sh SH221956 -17.30 120.90 -1 -17.30 120.90 TC -17.18 120.81 7 9 231
1956 SI WA 09:00:00 TS -17.54 120.52 170 169 P________PP___ SH221956 -17.56 120.53 -1 -17.56 120.53 TC -17.50 120.49 7 8 230
1956 SI WA 11:00:00 TS -17.71 120.31 178 178 P________PO___ SH221956 -17.72 120.31 -1 -17.72 120.31 TC -17.70 120.30 7 8 230
1956 SI WA 12:00:00 TS -17.80 120.19 181 181 O________OP___ jtwc_sh SH221956 -17.80 120.20 -1 -17.80 120.20 TC -17.79 120.17 7 8 233
1956 SI WA 15:00:00 TS -18.05 119.83 211 192 P________PP___ SH221956 -18.06 119.84 -1 -18.06 119.84 TC -18.03 119.81 7 8 233
1956 SI WA 18:00:00 TS -18.29 119.49 192 175 O________OP___ jtwc_sh SH221956 -18.30 119.50 -1 -18.30 119.50 TC -18.26 119.48 7 8 234
1956 SI WA 21:00:00 TS -18.50 119.19 178 167 P________PP___ SH221956 -18.51 119.18 -1 -18.51 119.18 TC -18.47 119.19 7 7 234
1956 SI WA 23:00:00 TS -18.63 118.99 168 158 P________PO___ SH221956 -18.64 118.99 -1 -18.64 118.99 TC -18.60 119.00 7 7 235
1956 SI WA 1956-02-26 00:00:00 TS -18.69 118.90 158 158 O________OP___ jtwc_sh SH221956 -18.70 118.90 -1 -18.70 118.90 TC -18.66 118.91 7 6 236
1956 SI WA 01:00:00 TS -18.75 118.81 994 bom 159 148 P________PP___ SH221956 -18.76 118.81 -1 -18.76 118.81 TC -18.72 118.81 7 6 236
1956 SI WA 03:00:00 TS -18.85 118.64 144 138 P________PP___ SH221956 -18.86 118.64 -1 -18.86 118.64 TC -18.83 118.64 7 6 238
1956 SI WA 06:00:00 TS -18.99 118.40 143 139 O________OP___ jtwc_sh SH221956 -19.00 118.40 -1 -19.00 118.40 TC -18.98 118.39 7 5 241
1956 SI WA 09:00:00 TS -19.10 118.15 145 134 P________PP___ SH221956 -19.10 118.15 -1 -19.10 118.15 TC -19.11 118.15 7 5 245
1956 SI WA 11:00:00 TS -19.18 117.99 134 134 P________PO___ SH221956 -19.16 117.98 -1 -19.16 117.98 TC -19.20 118.00 7 5 244
1956 SI WA 12:00:00 TS -19.22 117.91 135 119 O________OP___ jtwc_sh SH221956 -19.20 117.90 -1 -19.20 117.90 TC -19.25 117.92 7 6 240
1956 SI WA 15:00:00 TS -19.36 117.65 119 118 P________PP___ SH221956 -19.35 117.64 -1 -19.35 117.64 TC -19.39 117.67 7 5 238
1956 SI WA 18:00:00 TS -19.50 117.41 123 118 O________OP___ jtwc_sh SH221956 -19.50 117.40 -1 -19.50 117.40 TC -19.51 117.44 7 5 240
1956 SI WA 21:00:00 TS -19.62 117.19 119 105 P________PP___ SH221956 -19.61 117.18 -1 -19.61 117.18 TC -19.63 117.22 7 4 242
1956 SI WA 23:00:00 TS -19.68 117.07 105 102 P________PO___ SH221956 -19.67 117.05 -1 -19.67 117.05 TC -19.70 117.10 7 4 240
1956 SI WA 1956-02-27 00:00:00 TS -19.71 117.02 bom 102 102 O________OP___ jtwc_sh SH221956 -19.70 117.00 -1 -19.70 117.00 TC -19.73 117.05 7 3 236
1956 SI WA 01:00:00 TS -19.75 116.97 980 bom 102 90 P________PP___ SH221956 -19.74 116.96 -1 -19.74 116.96 TC -19.76 117.00 7 3 230
1956 SI WA 03:00:00 TS -19.81 116.89 90 78 P________PP___ SH221956 -19.81 116.88 -1 -19.81 116.88 TC -19.82 116.91 7 3 227
1956 SI WA 06:00:00 TS -19.90 116.80 78 67 O________OP___ jtwc_sh SH221956 -19.90 116.80 -1 -19.90 116.80 TC -19.90 116.79 7 2 231
1956 SI WA 09:00:00 TS -19.96 116.70 67 67 P________PP___ SH221956 -19.96 116.71 -1 -19.96 116.71 TC -19.96 116.68 7 2 240
1956 SI WA 11:00:00 TS -19.99 116.63 67 67 P________PO___ SH221956 -19.99 116.64 -1 -19.99 116.64 TC -20.00 116.60 7 2 245
1956 SI WA 12:00:00 TS -20.01 116.58 67 59 O________OP___ jtwc_sh SH221956 -20.00 116.60 -1 -20.00 116.60 TC -20.02 116.55 7 3 249
1956 SI WA 15:00:00 TS -20.06 116.45 64 64 P________PP___ SH221956 -20.05 116.46 -1 -20.05 116.46 TC -20.07 116.41 7 3 251
1956 SI WA 18:00:00 TS -20.11 116.29 69 69 O________OP___ jtwc_sh SH221956 -20.10 116.30 -1 -20.10 116.30 TC -20.12 116.26 7 1 294
1956 SI WA 21:00:00 TS -20.01 116.33 79 74 P________PP___ SH221956 -20.14 116.10 -1 -20.14 116.10 TC -20.16 116.11 7 4 47
1956 SI WA 23:00:00 TS -19.85 116.57 78 78 P________PO___ SH221956 -20.18 115.96 -1 -20.18 115.96 TC -20.20 116.00 7 10 58
1956 SI WA 1956-02-28 00:00:00 TS -19.74 116.79 100 100 O________OP___ jtwc_sh SH221956 -20.20 115.90 -1 -20.20 115.90 TC -20.22 115.94 7 12 61
1956 SI WA 01:00:00 TS -19.66 116.94 970 bom 101 101 P_____O__PP___ SH221956 -20.23 115.85 -1 -18.70 118.80 970 -20.23 115.85 TC -20.24 115.89 7 2 63
1956 SI WA 03:00:00 TS -19.69 116.89 101 89 P_____P__PP___ SH221956 -20.30 115.75 -1 -18.76 118.59 -20.30 115.75 TC -20.28 115.77 7 3 241
1956 SI WA 06:00:00 TS -19.80 116.68 89 81 O_____P__OP___ jtwc_sh SH221956 -20.40 115.60 -1 -18.85 118.31 -20.40 115.60 TC -20.34 115.60 7 4 245
1956 SI WA 09:00:00 TS -19.88 116.46 81 81 P_____P__PP___ SH221956 -20.44 115.40 -1 -18.95 118.06 -20.44 115.40 TC -20.43 115.42 7 4 248
1956 SI WA 11:00:00 TS -19.94 116.32 88 79 P_____P__PO___ SH221956 -20.47 115.26 -1 -19.01 117.90 -20.47 115.26 TC -20.50 115.30 7 4 246
1956 SI WA 12:00:00 TS -19.97 116.25 84 83 O_____P__OP___ jtwc_sh SH221956 -20.50 115.20 -1 -19.05 117.83 -20.50 115.20 TC -20.53 115.25 7 4 238
1956 SI WA 15:00:00 TS -20.08 116.08 83 81 P_____P__PP___ SH221956 -20.63 115.05 -1 -19.15 117.62 -20.63 115.05 TC -20.65 115.09 7 4 233
1956 SI WA 18:00:00 TS -20.21 115.91 84 76 O_____P__OP___ jtwc_sh SH221956 -20.80 114.90 -1 -19.25 117.42 -20.80 114.90 TC -20.79 114.93 7 5 231
1956 SI WA 21:00:00 TS -20.40 115.65 76 73 P_____P__PP___ SH221956 -20.98 114.72 -1 -19.36 117.24 -20.98 114.72 TC -20.96 114.74 7 7 232
1956 SI WA 23:00:00 TS -20.56 115.43 76 76 P_____P__PO___ SH221956 -21.12 114.58 -1 -19.43 117.12 -21.12 114.58 TC -21.10 114.60 7 9 232
1956 SI WA 1956-02-29 00:00:00 TS -20.69 115.26 76 76 O_____P__OP___ jtwc_sh SH221956 -21.20 114.50 -1 -19.46 117.06 -21.20 114.50 TC -21.17 114.51 7 17 233
1956 SI WA 01:00:00 TS -20.91 114.93 960 bom 84 70 P_____O__PP___ SH221956 -21.28 114.41 -1 -19.50 117.00 960 4 -21.28 114.41 TC -21.24 114.42 7 15 233
1956 SI WA 03:00:00 TS -21.15 114.60 63 45 P________PP___ SH221956 -21.44 114.21 -1 -21.44 114.21 TC -21.39 114.23 7 12 231
1956 SI WA 06:00:00 TS -21.53 114.13 44 22 O________OP___ jtwc_sh SH221956 -21.70 113.90 -1 -21.70 113.90 TC -21.65 113.92 7 12 229
1956 SI WA 09:00:00 TS -21.97 113.60 32 32 P________PP___ SH221956 -21.98 113.59 -1 -21.98 113.59 TC -21.96 113.60 7 11 226
1956 SI WA 11:00:00 TS -22.19 113.40 42 42 P________PO___ SH221956 -22.19 113.39 -1 -22.19 113.39 TC -22.20 113.40 7 9 220
1956 SI WA 12:00:00 TS -22.30 113.30 45 38 O________OP___ jtwc_sh SH221956 -22.30 113.30 -1 -22.30 113.30 TC -22.31 113.30 7 9 216
1956 SI WA 15:00:00 TS -22.67 113.03 62 62 P________PP___ SH221956 -22.66 113.04 -1 -22.66 113.04 TC -22.68 113.00 7 9 211
1956 SI WA 18:00:00 TS -23.10 112.78 99 99 O________OP___ jtwc_sh SH221956 -23.10 112.80 -1 -23.10 112.80 TC -23.11 112.73 7 10 207
1956 SI WA 21:00:00 TS -23.60 112.52 107 102 P________PP___ SH221956 -23.59 112.52 -1 -23.59 112.52 TC -23.61 112.51 7 12 203
1956 SI WA 23:00:00 TS -23.99 112.37 110 106 P________PO___ SH221956 -23.98 112.36 -1 -23.98 112.36 TC -24.00 112.40 7 13 197
1956 SI WA 1956-03-01 00:00:00 TS -24.21 112.31 113 111 O________OP___ jtwc_sh SH221956 -24.20 112.30 -1 -24.20 112.30 TC -24.22 112.34 7 14 192
1956 SI WA 01:00:00 TS -24.44 112.27 960 bom 111 111 P________PP___ SH221956 -24.44 112.26 -1 -24.44 112.26 TC -24.45 112.29 7 15 187
1956 SI WA 03:00:00 TS -24.96 112.21 138 118 P________PP___ SH221956 -24.98 112.20 -1 -24.98 112.20 TC -24.94 112.22 7 16 183
1956 SI WA 06:00:00 TS -25.77 112.19 114 109 O________OP___ jtwc_sh SH221956 -25.80 112.20 -1 -25.80 112.20 TC -25.72 112.16 7 16 0
1956 SI WA 09:00:00 TS -26.52 112.20 111 111 P________PP___ SH221956 -26.52 112.20 -1 -26.52 112.20 TC -26.50 112.21 7 15 177
1956 SI WA 11:00:00 TS -26.99 112.27 126 126 P________PO___ SH221956 -26.98 112.25 -1 -26.98 112.25 TC -27.00 112.30 7 14 171
1956 SI WA 12:00:00 TS -27.21 112.33 140 136 O________OP___ jtwc_sh SH221956 -27.20 112.30 -1 -27.20 112.30 TC -27.24 112.37 7 14 162
1956 SI WA 15:00:00 TS -27.87 112.60 147 131 P________PP___ SH221956 -27.86 112.55 -1 -27.86 112.55 TC -27.89 112.64 7 14 156
1956 SI WA 18:00:00 TS -28.49 112.96 125 118 O________OP___ jtwc_sh SH221956 -28.50 112.90 -1 -28.50 112.90 TC -28.48 112.99 7 14 149
1956 SI WA 21:00:00 NR -29.04 113.41 118 103 __________P___ SH221956 -1 TC -29.04 113.41 7 13 144
1956 SI WA 23:00:00 NR -29.40 113.70 110 __________O___ SH221956 -1 TC -29.40 113.70 7 13 145